sensor_id;sensor_type;location;lat;lon;timestamp;temperature;humidity
10538;DHT22;5317;49.048;8.468;2024-03-02T00:00:39;9.90;75.50
10538;DHT22;5317;49.048;8.468;2024-03-02T00:03:07;10.00;74.40
10538;DHT22;5317;49.048;8.468;2024-03-02T00:05:35;10.00;74.30
10538;DHT22;5317;49.048;8.468;2024-03-02T00:08:05;9.90;75.50
10538;DHT22;5317;49.048;8.468;2024-03-02T00:10:37;9.90;75.50
10538;DHT22;5317;49.048;8.468;2024-03-02T00:13:05;9.90;74.90
10538;DHT22;5317;49.048;8.468;2024-03-02T00:15:46;9.80;75.10
10538;DHT22;5317;49.048;8.468;2024-03-02T00:18:19;9.80;75.50
10538;DHT22;5317;49.048;8.468;2024-03-02T00:20:46;9.80;75.40
10538;DHT22;5317;49.048;8.468;2024-03-02T00:23:15;9.80;75.30
10538;DHT22;5317;49.048;8.468;2024-03-02T00:25:44;9.80;75.70
10538;DHT22;5317;49.048;8.468;2024-03-02T00:28:16;9.80;75.80
10538;DHT22;5317;49.048;8.468;2024-03-02T00:31:05;9.80;75.80
10538;DHT22;5317;49.048;8.468;2024-03-02T00:33:33;9.70;76.10
10538;DHT22;5317;49.048;8.468;2024-03-02T00:36:01;9.70;75.80
10538;DHT22;5317;49.048;8.468;2024-03-02T00:38:31;9.70;75.80
10538;DHT22;5317;49.048;8.468;2024-03-02T00:40:59;9.70;75.80
10538;DHT22;5317;49.048;8.468;2024-03-02T00:43:47;9.70;75.70
10538;DHT22;5317;49.048;8.468;2024-03-02T00:46:18;9.70;75.50
10538;DHT22;5317;49.048;8.468;2024-03-02T00:48:53;9.70;75.50
10538;DHT22;5317;49.048;8.468;2024-03-02T00:51:21;9.70;75.30
10538;DHT22;5317;49.048;8.468;2024-03-02T00:53:49;9.80;75.40
10538;DHT22;5317;49.048;8.468;2024-03-02T00:56:16;9.80;75.10
10538;DHT22;5317;49.048;8.468;2024-03-02T00:58:43;9.80;75.00
10538;DHT22;5317;49.048;8.468;2024-03-02T01:01:10;9.80;74.80
10538;DHT22;5317;49.048;8.468;2024-03-02T01:03:37;9.80;74.80
10538;DHT22;5317;49.048;8.468;2024-03-02T01:06:04;9.70;74.80
10538;DHT22;5317;49.048;8.468;2024-03-02T01:08:33;9.70;74.80
10538;DHT22;5317;49.048;8.468;2024-03-02T01:11:01;9.70;74.80
10538;DHT22;5317;49.048;8.468;2024-03-02T01:13:29;9.70;74.80
10538;DHT22;5317;49.048;8.468;2024-03-02T01:15:56;9.60;74.60
10538;DHT22;5317;49.048;8.468;2024-03-02T01:18:23;9.60;74.80
10538;DHT22;5317;49.048;8.468;2024-03-02T01:20:50;9.60;75.00
10538;DHT22;5317;49.048;8.468;2024-03-02T01:23:18;9.60;75.00
10538;DHT22;5317;49.048;8.468;2024-03-02T01:25:46;9.60;74.80
10538;DHT22;5317;49.048;8.468;2024-03-02T01:28:14;9.60;74.50
10538;DHT22;5317;49.048;8.468;2024-03-02T01:30:41;9.60;74.60
10538;DHT22;5317;49.048;8.468;2024-03-02T01:33:09;9.60;74.70
10538;DHT22;5317;49.048;8.468;2024-03-02T01:35:36;9.50;74.50
10538;DHT22;5317;49.048;8.468;2024-03-02T01:38:04;9.50;74.60
10538;DHT22;5317;49.048;8.468;2024-03-02T01:40:31;9.40;74.70
10538;DHT22;5317;49.048;8.468;2024-03-02T01:42:58;9.30;74.80
10538;DHT22;5317;49.048;8.468;2024-03-02T01:45:26;9.40;74.90
10538;DHT22;5317;49.048;8.468;2024-03-02T01:47:53;9.30;74.70
10538;DHT22;5317;49.048;8.468;2024-03-02T01:50:27;9.30;74.70
10538;DHT22;5317;49.048;8.468;2024-03-02T01:52:55;9.30;74.80
10538;DHT22;5317;49.048;8.468;2024-03-02T01:55:23;9.30;74.80
10538;DHT22;5317;49.048;8.468;2024-03-02T01:57:50;9.30;74.90
10538;DHT22;5317;49.048;8.468;2024-03-02T02:00:18;9.20;74.70
10538;DHT22;5317;49.048;8.468;2024-03-02T02:02:46;9.30;74.60
10538;DHT22;5317;49.048;8.468;2024-03-02T02:05:14;9.30;74.40
10538;DHT22;5317;49.048;8.468;2024-03-02T02:07:41;9.20;74.40
10538;DHT22;5317;49.048;8.468;2024-03-02T02:10:09;9.30;74.50
10538;DHT22;5317;49.048;8.468;2024-03-02T02:12:36;9.20;74.40
10538;DHT22;5317;49.048;8.468;2024-03-02T02:15:03;9.20;74.40
10538;DHT22;5317;49.048;8.468;2024-03-02T02:17:31;9.20;74.20
10538;DHT22;5317;49.048;8.468;2024-03-02T02:19:59;9.20;74.30
10538;DHT22;5317;49.048;8.468;2024-03-02T02:22:27;9.20;74.10
10538;DHT22;5317;49.048;8.468;2024-03-02T02:24:54;9.20;74.00
10538;DHT22;5317;49.048;8.468;2024-03-02T02:27:21;9.10;73.90
10538;DHT22;5317;49.048;8.468;2024-03-02T02:29:48;9.10;74.10
10538;DHT22;5317;49.048;8.468;2024-03-02T02:32:15;9.10;74.10
10538;DHT22;5317;49.048;8.468;2024-03-02T02:34:42;9.10;74.10
10538;DHT22;5317;49.048;8.468;2024-03-02T02:37:09;9.00;74.20
10538;DHT22;5317;49.048;8.468;2024-03-02T02:39:37;9.00;74.30
10538;DHT22;5317;49.048;8.468;2024-03-02T02:42:05;8.90;74.70
10538;DHT22;5317;49.048;8.468;2024-03-02T02:44:32;8.90;74.90
10538;DHT22;5317;49.048;8.468;2024-03-02T02:46:59;8.90;74.90
10538;DHT22;5317;49.048;8.468;2024-03-02T02:49:26;8.90;74.70
10538;DHT22;5317;49.048;8.468;2024-03-02T02:51:53;8.90;74.70
10538;DHT22;5317;49.048;8.468;2024-03-02T02:54:20;8.90;74.50
10538;DHT22;5317;49.048;8.468;2024-03-02T02:56:48;8.90;74.30
10538;DHT22;5317;49.048;8.468;2024-03-02T02:59:15;8.90;74.40
10538;DHT22;5317;49.048;8.468;2024-03-02T03:01:42;8.90;74.30
10538;DHT22;5317;49.048;8.468;2024-03-02T03:04:09;8.90;74.30
10538;DHT22;5317;49.048;8.468;2024-03-02T03:06:36;8.90;74.40
10538;DHT22;5317;49.048;8.468;2024-03-02T03:09:03;8.90;74.30
10538;DHT22;5317;49.048;8.468;2024-03-02T03:11:30;8.90;74.20
10538;DHT22;5317;49.048;8.468;2024-03-02T03:13:58;8.90;74.20
10538;DHT22;5317;49.048;8.468;2024-03-02T03:16:27;8.80;74.10
10538;DHT22;5317;49.048;8.468;2024-03-02T03:18:53;8.80;74.10
10538;DHT22;5317;49.048;8.468;2024-03-02T03:21:20;8.80;74.20
10538;DHT22;5317;49.048;8.468;2024-03-02T03:23:47;8.80;74.10
10538;DHT22;5317;49.048;8.468;2024-03-02T03:26:14;8.60;74.20
10538;DHT22;5317;49.048;8.468;2024-03-02T03:28:41;8.50;75.10
10538;DHT22;5317;49.048;8.468;2024-03-02T03:31:09;8.50;75.30
10538;DHT22;5317;49.048;8.468;2024-03-02T03:33:36;8.20;75.80
10538;DHT22;5317;49.048;8.468;2024-03-02T03:36:03;8.20;76.70
10538;DHT22;5317;49.048;8.468;2024-03-02T03:38:30;8.20;76.80
10538;DHT22;5317;49.048;8.468;2024-03-02T03:40:57;8.20;77.10
10538;DHT22;5317;49.048;8.468;2024-03-02T03:43:24;8.20;76.80
10538;DHT22;5317;49.048;8.468;2024-03-02T03:45:51;8.40;76.70
10538;DHT22;5317;49.048;8.468;2024-03-02T03:48:20;8.40;76.20
10538;DHT22;5317;49.048;8.468;2024-03-02T03:50:46;8.40;76.00
10538;DHT22;5317;49.048;8.468;2024-03-02T03:53:13;8.50;75.80
10538;DHT22;5317;49.048;8.468;2024-03-02T03:55:41;8.50;75.80
10538;DHT22;5317;49.048;8.468;2024-03-02T03:58:08;8.50;75.60
10538;DHT22;5317;49.048;8.468;2024-03-02T04:00:35;8.60;75.40
10538;DHT22;5317;49.048;8.468;2024-03-02T04:03:02;8.60;75.30
10538;DHT22;5317;49.048;8.468;2024-03-02T04:05:30;8.60;75.10
10538;DHT22;5317;49.048;8.468;2024-03-02T04:07:57;8.60;74.90
10538;DHT22;5317;49.048;8.468;2024-03-02T04:10:23;8.60;74.80
10538;DHT22;5317;49.048;8.468;2024-03-02T04:12:51;8.50;74.50
10538;DHT22;5317;49.048;8.468;2024-03-02T04:15:17;8.50;74.50
10538;DHT22;5317;49.048;8.468;2024-03-02T04:17:45;8.50;74.50
10538;DHT22;5317;49.048;8.468;2024-03-02T04:20:12;8.40;74.60
10538;DHT22;5317;49.048;8.468;2024-03-02T04:22:40;8.50;74.50
10538;DHT22;5317;49.048;8.468;2024-03-02T04:25:08;8.50;74.60
10538;DHT22;5317;49.048;8.468;2024-03-02T04:27:35;8.50;74.50
10538;DHT22;5317;49.048;8.468;2024-03-02T04:30:03;8.50;74.30
10538;DHT22;5317;49.048;8.468;2024-03-02T04:32:31;8.40;74.40
10538;DHT22;5317;49.048;8.468;2024-03-02T04:34:58;8.40;74.20
10538;DHT22;5317;49.048;8.468;2024-03-02T04:37:25;8.40;74.10
10538;DHT22;5317;49.048;8.468;2024-03-02T04:39:53;8.30;73.90
10538;DHT22;5317;49.048;8.468;2024-03-02T04:42:20;8.30;74.10
10538;DHT22;5317;49.048;8.468;2024-03-02T04:44:48;8.30;74.10
10538;DHT22;5317;49.048;8.468;2024-03-02T04:47:15;8.30;74.10
10538;DHT22;5317;49.048;8.468;2024-03-02T04:49:41;8.30;73.90
10538;DHT22;5317;49.048;8.468;2024-03-02T04:52:09;8.30;73.60
10538;DHT22;5317;49.048;8.468;2024-03-02T04:54:35;8.20;73.50
10538;DHT22;5317;49.048;8.468;2024-03-02T04:57:24;8.20;73.60
10538;DHT22;5317;49.048;8.468;2024-03-02T04:59:51;8.20;73.70
10538;DHT22;5317;49.048;8.468;2024-03-02T05:02:18;8.10;73.60
10538;DHT22;5317;49.048;8.468;2024-03-02T05:04:45;8.10;73.60
10538;DHT22;5317;49.048;8.468;2024-03-02T05:07:13;8.10;73.60
10538;DHT22;5317;49.048;8.468;2024-03-02T05:09:40;8.10;73.60
10538;DHT22;5317;49.048;8.468;2024-03-02T05:12:07;8.10;73.60
10538;DHT22;5317;49.048;8.468;2024-03-02T05:14:56;8.10;73.50
10538;DHT22;5317;49.048;8.468;2024-03-02T05:17:23;8.10;73.60
10538;DHT22;5317;49.048;8.468;2024-03-02T05:19:50;8.00;73.50
10538;DHT22;5317;49.048;8.468;2024-03-02T05:22:16;8.00;73.30
10538;DHT22;5317;49.048;8.468;2024-03-02T05:24:43;8.00;73.50
10538;DHT22;5317;49.048;8.468;2024-03-02T05:27:10;8.00;73.30
10538;DHT22;5317;49.048;8.468;2024-03-02T05:29:37;8.00;73.40
10538;DHT22;5317;49.048;8.468;2024-03-02T05:32:06;8.00;73.80
10538;DHT22;5317;49.048;8.468;2024-03-02T05:34:32;7.90;74.30
10538;DHT22;5317;49.048;8.468;2024-03-02T05:37:01;7.80;74.20
10538;DHT22;5317;49.048;8.468;2024-03-02T05:39:28;7.80;74.50
10538;DHT22;5317;49.048;8.468;2024-03-02T05:41:54;7.80;74.70
10538;DHT22;5317;49.048;8.468;2024-03-02T05:44:21;7.80;75.40
10538;DHT22;5317;49.048;8.468;2024-03-02T05:46:48;7.80;74.80
10538;DHT22;5317;49.048;8.468;2024-03-02T05:49:16;7.80;74.70
10538;DHT22;5317;49.048;8.468;2024-03-02T05:51:43;7.70;74.90
10538;DHT22;5317;49.048;8.468;2024-03-02T05:54:10;7.70;75.10
10538;DHT22;5317;49.048;8.468;2024-03-02T05:56:37;7.70;75.00
10538;DHT22;5317;49.048;8.468;2024-03-02T05:59:04;7.70;75.70
10538;DHT22;5317;49.048;8.468;2024-03-02T06:01:38;7.70;74.80
10538;DHT22;5317;49.048;8.468;2024-03-02T06:04:05;7.80;74.70
10538;DHT22;5317;49.048;8.468;2024-03-02T06:06:33;7.80;74.50
10538;DHT22;5317;49.048;8.468;2024-03-02T06:09:00;7.80;74.30
10538;DHT22;5317;49.048;8.468;2024-03-02T06:11:28;7.80;74.00
10538;DHT22;5317;49.048;8.468;2024-03-02T06:13:54;7.80;73.80
10538;DHT22;5317;49.048;8.468;2024-03-02T06:16:22;7.80;73.80
10538;DHT22;5317;49.048;8.468;2024-03-02T06:18:48;7.80;73.80
10538;DHT22;5317;49.048;8.468;2024-03-02T06:21:15;7.80;73.80
10538;DHT22;5317;49.048;8.468;2024-03-02T06:23:44;7.70;73.80
10538;DHT22;5317;49.048;8.468;2024-03-02T06:26:11;7.70;74.10
10538;DHT22;5317;49.048;8.468;2024-03-02T06:28:38;7.70;74.10
10538;DHT22;5317;49.048;8.468;2024-03-02T06:31:05;7.70;74.20
10538;DHT22;5317;49.048;8.468;2024-03-02T06:33:32;7.70;74.20
10538;DHT22;5317;49.048;8.468;2024-03-02T06:35:59;7.80;74.30
10538;DHT22;5317;49.048;8.468;2024-03-02T06:38:25;7.70;74.00
10538;DHT22;5317;49.048;8.468;2024-03-02T06:40:54;7.80;74.00
10538;DHT22;5317;49.048;8.468;2024-03-02T06:43:21;7.80;73.90
10538;DHT22;5317;49.048;8.468;2024-03-02T06:45:48;7.80;74.80
10538;DHT22;5317;49.048;8.468;2024-03-02T06:48:16;7.80;73.90
10538;DHT22;5317;49.048;8.468;2024-03-02T06:50:45;7.80;74.00
10538;DHT22;5317;49.048;8.468;2024-03-02T06:53:13;7.80;74.00
10538;DHT22;5317;49.048;8.468;2024-03-02T06:55:43;7.80;74.10
10538;DHT22;5317;49.048;8.468;2024-03-02T06:58:11;7.90;74.40
10538;DHT22;5317;49.048;8.468;2024-03-02T07:00:38;7.90;74.50
10538;DHT22;5317;49.048;8.468;2024-03-02T07:03:05;7.80;74.50
10538;DHT22;5317;49.048;8.468;2024-03-02T07:05:32;7.80;74.60
10538;DHT22;5317;49.048;8.468;2024-03-02T07:07:58;7.90;74.80
10538;DHT22;5317;49.048;8.468;2024-03-02T07:10:27;7.90;74.80
10538;DHT22;5317;49.048;8.468;2024-03-02T07:12:53;7.80;74.70
10538;DHT22;5317;49.048;8.468;2024-03-02T07:15:22;7.90;74.80
10538;DHT22;5317;49.048;8.468;2024-03-02T07:18:08;7.90;74.70
10538;DHT22;5317;49.048;8.468;2024-03-02T07:20:35;7.90;75.00
10538;DHT22;5317;49.048;8.468;2024-03-02T07:23:04;7.90;75.00
10538;DHT22;5317;49.048;8.468;2024-03-02T07:25:31;8.00;75.30
10538;DHT22;5317;49.048;8.468;2024-03-02T07:27:58;8.00;75.40
10538;DHT22;5317;49.048;8.468;2024-03-02T07:30:26;8.10;75.80
10538;DHT22;5317;49.048;8.468;2024-03-02T07:32:53;8.10;75.90
10538;DHT22;5317;49.048;8.468;2024-03-02T07:35:20;8.20;76.20
10538;DHT22;5317;49.048;8.468;2024-03-02T07:37:48;8.30;76.50
10538;DHT22;5317;49.048;8.468;2024-03-02T07:40:15;8.50;76.60
10538;DHT22;5317;49.048;8.468;2024-03-02T07:42:41;8.60;76.50
10538;DHT22;5317;49.048;8.468;2024-03-02T07:45:09;8.80;76.90
10538;DHT22;5317;49.048;8.468;2024-03-02T07:47:37;8.90;76.80
10538;DHT22;5317;49.048;8.468;2024-03-02T07:50:05;9.00;76.70
10538;DHT22;5317;49.048;8.468;2024-03-02T07:52:32;9.20;77.00
10538;DHT22;5317;49.048;8.468;2024-03-02T07:54:59;9.30;77.20
10538;DHT22;5317;49.048;8.468;2024-03-02T07:57:27;9.50;77.40
10538;DHT22;5317;49.048;8.468;2024-03-02T07:59:54;9.60;77.60
10538;DHT22;5317;49.048;8.468;2024-03-02T08:02:21;9.70;77.60
10538;DHT22;5317;49.048;8.468;2024-03-02T08:04:49;9.90;77.60
10538;DHT22;5317;49.048;8.468;2024-03-02T08:07:16;10.00;76.40
10538;DHT22;5317;49.048;8.468;2024-03-02T08:09:43;10.20;76.40
10538;DHT22;5317;49.048;8.468;2024-03-02T08:12:10;10.30;77.00
10538;DHT22;5317;49.048;8.468;2024-03-02T08:14:37;10.40;77.20
10538;DHT22;5317;49.048;8.468;2024-03-02T08:17:04;10.60;77.90
10538;DHT22;5317;49.048;8.468;2024-03-02T08:19:35;10.70;77.90
10538;DHT22;5317;49.048;8.468;2024-03-02T08:22:04;10.80;77.80
10538;DHT22;5317;49.048;8.468;2024-03-02T08:24:31;11.00;77.90
10538;DHT22;5317;49.048;8.468;2024-03-02T08:26:59;11.10;78.00
10538;DHT22;5317;49.048;8.468;2024-03-02T08:29:26;11.30;78.10
10538;DHT22;5317;49.048;8.468;2024-03-02T08:31:53;11.40;78.00
10538;DHT22;5317;49.048;8.468;2024-03-02T08:34:20;11.60;77.80
10538;DHT22;5317;49.048;8.468;2024-03-02T08:36:47;11.70;77.50
10538;DHT22;5317;49.048;8.468;2024-03-02T08:39:15;11.90;77.10
10538;DHT22;5317;49.048;8.468;2024-03-02T08:41:43;12.00;76.50
10538;DHT22;5317;49.048;8.468;2024-03-02T08:44:11;12.10;75.70
10538;DHT22;5317;49.048;8.468;2024-03-02T08:46:38;12.20;75.40
10538;DHT22;5317;49.048;8.468;2024-03-02T08:49:06;12.40;75.00
10538;DHT22;5317;49.048;8.468;2024-03-02T08:51:33;12.60;75.20
10538;DHT22;5317;49.048;8.468;2024-03-02T08:53:59;12.70;75.30
